createdAt,value
2023-02-18T00:01:52.344Z,99255.72
2023-02-18T00:04:20.142Z,99252.91
2023-02-18T00:06:47.976Z,99251.98
2023-02-18T00:09:15.982Z,99260.11
2023-02-18T00:11:43.737Z,99269.09
2023-02-18T00:14:14.258Z,99270.27
2023-02-18T00:16:43.065Z,99278.98
2023-02-18T00:19:13.863Z,99280.24
2023-02-18T00:21:42.734Z,99282.02
2023-02-18T00:24:15.239Z,99285.44
2023-02-18T00:26:44.144Z,99289.90
2023-02-18T00:29:12.440Z,99284.75
2023-02-18T00:31:41.535Z,99289.77
2023-02-18T00:34:11.324Z,99283.91
2023-02-18T00:36:39.214Z,99276.21
2023-02-18T00:39:09.614Z,99285.15
2023-02-18T00:41:38.583Z,99281.66
2023-02-18T00:44:07.529Z,99274.87
2023-02-18T00:46:36.304Z,99283.28
2023-02-18T00:49:05.438Z,99288.65
2023-02-18T00:51:33.479Z,99291.80
2023-02-18T00:54:02.034Z,99288.79
2023-02-18T00:56:29.848Z,99284.75
2023-02-18T00:58:57.865Z,99297.81
2023-02-18T01:01:25.803Z,99306.74
2023-02-18T01:03:53.806Z,99298.17
2023-02-18T01:06:22.538Z,99300.13
2023-02-18T01:08:50.610Z,99305.23
2023-02-18T01:11:18.849Z,99300.67
2023-02-18T01:13:47.575Z,99293.90
2023-02-18T01:16:17.135Z,99300.35
2023-02-18T01:18:45.512Z,99299.08
2023-02-18T01:21:14.245Z,99296.95
2023-02-18T01:23:43.496Z,99304.45
2023-02-18T01:26:12.197Z,99302.73
2023-02-18T01:28:41.776Z,99294.95
2023-02-18T01:31:14.774Z,99301.83
2023-02-18T01:33:43.770Z,99299.63
2023-02-18T01:36:12.270Z,99302.73
2023-02-18T01:38:40.720Z,99304.16
2023-02-18T01:41:09.134Z,99307.52
2023-02-18T01:43:37.930Z,99295.91
2023-02-18T01:46:17.920Z,99300.31
2023-02-18T01:48:51.748Z,99310.93
2023-02-18T01:51:25.969Z,99297.42
2023-02-18T01:54:15.029Z,99300.30
2023-02-18T01:56:47.294Z,99299.38
2023-02-18T01:59:22.002Z,99290.96
2023-02-18T02:01:50.038Z,99288.89
2023-02-18T02:04:18.463Z,99301.45
2023-02-18T02:06:46.613Z,99294.92
2023-02-18T02:09:17.995Z,99296.61
2023-02-18T02:12:08.688Z,99294.59
2023-02-18T02:15:23.253Z,99298.06
2023-02-18T02:18:14.022Z,99304.05
2023-02-18T02:20:47.917Z,99294.59
2023-02-18T02:23:54.364Z,99281.38
2023-02-18T02:26:38.656Z,99296.07
2023-02-18T02:29:25.084Z,99301.23
2023-02-18T02:32:17.630Z,99305.73
2023-02-18T02:34:57.368Z,99299.25
2023-02-18T02:37:46.541Z,99297.05
2023-02-18T02:40:19.526Z,99307.38
2023-02-18T02:43:12.692Z,99309.84
2023-02-18T02:46:03.619Z,99307.68
2023-02-18T02:48:49.490Z,99319.06
2023-02-18T02:51:25.608Z,99310.70
2023-02-18T02:53:53.625Z,99322.90
2023-02-18T02:56:24.980Z,99323.11
2023-02-18T02:59:02.948Z,99328.31
2023-02-18T03:02:16.985Z,99313.65
2023-02-18T03:05:07.217Z,99326.95
2023-02-18T03:07:55.557Z,99314.64
2023-02-18T03:10:33.657Z,99333.27
2023-02-18T03:13:14.834Z,99325.79
2023-02-18T03:15:58.106Z,99335.45
2023-02-18T03:18:36.888Z,99327.41
2023-02-18T03:21:15.393Z,99333.52
2023-02-18T03:23:56.497Z,99332.12
2023-02-18T03:26:26.725Z,99336.52
2023-02-18T03:28:57.614Z,99334.73
2023-02-18T03:31:29.095Z,99337.45
2023-02-18T03:34:05.768Z,99338.22
2023-02-18T03:36:34.767Z,99343.71
2023-02-18T03:39:11.405Z,99351.86
2023-02-18T03:41:39.613Z,99341.33
2023-02-18T03:44:09.270Z,99352.21
2023-02-18T03:46:39.805Z,99361.15
2023-02-18T03:49:07.704Z,99358.75
2023-02-18T03:51:36.902Z,99360.49
2023-02-18T03:54:05.280Z,99354.20
2023-02-18T03:56:34.688Z,99365.06
2023-02-18T03:59:03.930Z,99363.45
2023-02-18T04:01:32.102Z,99364.86
2023-02-18T04:04:00.337Z,99366.75
2023-02-18T04:06:28.331Z,99362.95
2023-02-18T04:08:56.365Z,99371.11
2023-02-18T04:11:24.192Z,99373.98
2023-02-18T04:13:52.222Z,99381.16
2023-02-18T04:16:20.344Z,99393.63
2023-02-18T04:18:48.274Z,99383.44
2023-02-18T04:21:16.120Z,99382.20
2023-02-18T04:23:43.929Z,99376.08
2023-02-18T04:26:11.933Z,99383.66
2023-02-18T04:28:39.775Z,99401.92
2023-02-18T04:31:07.668Z,99395.23
2023-02-18T04:33:35.589Z,99400.06
2023-02-18T04:36:03.958Z,99395.46
2023-02-18T04:38:32.099Z,99393.25
2023-02-18T04:40:59.914Z,99396.01
2023-02-18T04:43:27.737Z,99386.83
2023-02-18T04:45:55.707Z,99385.77
2023-02-18T04:48:23.772Z,99388.27
2023-02-18T04:50:52.339Z,99388.19
2023-02-18T04:53:20.158Z,99377.36
2023-02-18T04:55:52.401Z,99378.33
2023-02-18T04:58:21.263Z,99381.48
2023-02-18T05:00:49.095Z,99383.27
2023-02-18T05:03:17.004Z,99376.72
2023-02-18T05:05:46.121Z,99386.67
2023-02-18T05:08:14.063Z,99384.66
2023-02-18T05:10:41.916Z,99373.95
2023-02-18T05:13:09.951Z,99369.96
2023-02-18T05:15:37.933Z,99377.61
2023-02-18T05:18:05.915Z,99383.00
2023-02-18T05:20:35.250Z,99383.06
2023-02-18T05:23:03.105Z,99390.30
2023-02-18T05:25:31.378Z,99401.68
2023-02-18T05:27:59.202Z,99402.80
2023-02-18T05:30:27.253Z,99407.50
2023-02-18T05:32:55.496Z,99407.52
2023-02-18T05:35:23.319Z,99407.35
2023-02-18T05:37:51.130Z,99414.84
2023-02-18T05:40:19.192Z,99418.33
2023-02-18T05:42:47.103Z,99423.67
2023-02-18T05:45:14.993Z,99430.77
2023-02-18T05:47:42.802Z,99424.33
2023-02-18T05:50:10.859Z,99425.94
2023-02-18T05:52:38.831Z,99427.27
2023-02-18T05:55:06.875Z,99424.80
2023-02-18T05:57:34.717Z,99426.13
2023-02-18T06:00:04.208Z,99426.09
2023-02-18T06:02:32.612Z,99432.47
2023-02-18T06:05:00.640Z,99432.98
2023-02-18T06:07:28.719Z,99438.30
2023-02-18T06:09:57.048Z,99436.67
2023-02-18T06:12:25.120Z,99442.10
2023-02-18T06:14:53.053Z,99448.39
2023-02-18T06:17:22.824Z,99454.15
2023-02-18T06:19:50.863Z,99468.30
2023-02-18T06:22:18.691Z,99478.67
2023-02-18T06:24:46.737Z,99484.27
2023-02-18T06:27:14.662Z,99488.67
2023-02-18T06:29:42.591Z,99496.00
2023-02-18T06:32:10.500Z,99494.41
2023-02-18T06:34:38.884Z,99494.02
2023-02-18T06:37:06.780Z,99495.69
2023-02-18T06:39:35.019Z,99498.94
2023-02-18T06:42:02.846Z,99495.84
2023-02-18T06:44:30.875Z,99501.84
2023-02-18T06:46:58.907Z,99499.21
2023-02-18T06:49:26.730Z,99505.34
2023-02-18T06:51:54.518Z,99514.38
2023-02-18T06:54:22.307Z,99515.88
2023-02-18T06:56:51.002Z,99510.47
2023-02-18T06:59:18.759Z,99519.11
2023-02-18T07:01:46.536Z,99523.13
2023-02-18T07:04:14.324Z,99518.55
2023-02-18T07:06:42.060Z,99508.27
2023-02-18T07:09:09.899Z,99514.52
2023-02-18T07:11:37.752Z,99509.98
2023-02-18T07:14:07.457Z,99525.02
2023-02-18T07:16:36.172Z,99519.25
2023-02-18T07:19:03.991Z,99507.30
2023-02-18T07:21:31.812Z,99514.44
2023-02-18T07:24:00.008Z,99520.04
2023-02-18T07:26:28.169Z,99519.15
2023-02-18T07:28:56.061Z,99520.18
2023-02-18T07:31:24.064Z,99520.50
2023-02-18T07:33:52.001Z,99532.81
2023-02-18T07:36:19.863Z,99522.42
2023-02-18T07:38:47.718Z,99520.79
2023-02-18T07:41:21.169Z,99522.34
2023-02-18T07:43:49.682Z,99506.56
2023-02-18T07:46:17.614Z,99494.40
2023-02-18T07:48:45.477Z,99494.72
2023-02-18T07:51:13.600Z,99500.27
2023-02-18T07:53:41.548Z,99519.02
2023-02-18T07:56:09.650Z,99496.27
2023-02-18T07:58:39.547Z,99492.41
2023-02-18T08:01:10.032Z,99501.42
2023-02-18T08:03:38.504Z,99494.55
2023-02-18T08:06:07.086Z,99506.38
2023-02-18T08:08:37.112Z,99495.77
2023-02-18T08:11:17.070Z,99502.02
2023-02-18T08:13:48.579Z,99512.39
2023-02-18T08:16:19.327Z,99522.38
2023-02-18T08:18:48.621Z,99515.05
2023-02-18T08:21:18.464Z,99515.04
2023-02-18T08:23:46.520Z,99510.66
2023-02-18T08:26:14.797Z,99516.27
2023-02-18T08:28:44.437Z,99524.03
2023-02-18T08:31:25.281Z,99521.98
2023-02-18T08:33:58.744Z,99527.68
2023-02-18T08:36:28.320Z,99528.87
2023-02-18T08:38:57.684Z,99541.52
2023-02-18T08:41:25.727Z,99534.42
2023-02-18T08:43:54.066Z,99545.30
2023-02-18T08:46:25.180Z,99549.60
2023-02-18T08:48:59.601Z,99541.27
2023-02-18T08:51:29.042Z,99553.75
2023-02-18T08:53:56.989Z,99554.70
2023-02-18T08:56:24.799Z,99547.84
2023-02-18T08:58:52.582Z,99551.26
2023-02-18T09:01:20.932Z,99550.90
2023-02-18T09:03:48.936Z,99550.05
2023-02-18T09:06:16.840Z,99567.30
2023-02-18T09:08:45.148Z,99553.50
2023-02-18T09:11:13.048Z,99552.48
2023-02-18T09:13:41.079Z,99550.63
2023-02-18T09:16:18.370Z,99554.17
2023-02-18T09:18:48.087Z,99556.66
2023-02-18T09:21:16.918Z,99554.98
2023-02-18T09:23:44.727Z,99556.63
2023-02-18T09:26:15.534Z,99552.84
2023-02-18T09:28:43.604Z,99563.95
2023-02-18T09:40:35.919Z,99570.23
2023-02-18T09:43:03.790Z,99573.84
2023-02-18T09:45:32.372Z,99583.82
2023-02-18T09:48:03.849Z,99585.75
2023-02-18T09:50:35.292Z,99584.27
2023-02-18T09:53:04.886Z,99582.34
2023-02-18T09:55:38.843Z,99576.46
2023-02-18T09:58:13.928Z,99585.76
2023-02-18T10:00:44.738Z,99593.13
2023-02-18T10:03:17.127Z,99594.97
2023-02-18T10:05:59.065Z,99597.01
2023-02-18T10:08:35.457Z,99597.45
2023-02-18T10:11:04.160Z,99606.46
2023-02-18T10:13:34.060Z,99608.34
2023-02-18T10:16:03.939Z,99593.41
2023-02-18T10:18:41.640Z,99601.89
2023-02-18T10:21:11.513Z,99608.02
2023-02-18T10:23:44.091Z,99594.88
2023-02-18T10:26:16.845Z,99603.36
2023-02-18T10:28:46.134Z,99598.84
2023-02-18T10:31:21.295Z,99588.48
2023-02-18T10:34:07.375Z,99582.27
2023-02-18T10:36:53.885Z,99589.63
2023-02-18T10:39:32.313Z,99589.39
2023-02-18T10:42:18.800Z,99588.05
2023-02-18T10:45:05.118Z,99580.48
2023-02-18T10:48:35.017Z,99587.61
2023-02-18T10:51:14.976Z,99578.91
2023-02-18T10:53:45.642Z,99565.08
2023-02-18T10:56:38.556Z,99564.95
2023-02-18T10:59:12.380Z,99559.61
2023-02-18T11:01:42.772Z,99566.85
2023-02-18T11:04:17.953Z,99554.70
2023-02-18T11:06:52.003Z,99561.48
2023-02-18T11:09:40.633Z,99555.03
2023-02-18T11:12:36.024Z,99562.34
2023-02-18T11:15:15.592Z,99556.09
2023-02-18T11:17:46.927Z,99550.89
2023-02-18T11:20:20.615Z,99553.97
2023-02-18T11:22:49.440Z,99549.09
2023-02-18T11:25:33.446Z,99550.70
2023-02-18T11:28:04.495Z,99547.07
2023-02-18T11:30:42.858Z,99555.19
2023-02-18T11:33:24.634Z,99548.45
2023-02-18T11:35:55.253Z,99542.41
2023-02-18T11:38:34.355Z,99537.92
2023-02-18T11:41:10.879Z,99539.91
2023-02-18T11:43:42.268Z,99548.44
2023-02-18T11:46:16.585Z,99534.75
2023-02-18T11:48:45.014Z,99532.09
2023-02-18T11:51:18.534Z,99536.83
2023-02-18T11:53:59.782Z,99539.56
2023-02-18T11:56:33.571Z,99538.35
2023-02-18T11:59:03.578Z,99530.53
2023-02-18T12:01:47.476Z,99529.12
2023-02-18T12:04:40.723Z,99545.42
2023-02-18T12:07:22.582Z,99528.59
2023-02-18T12:09:58.212Z,99527.04
2023-02-18T12:12:41.459Z,99527.98
2023-02-18T12:15:16.556Z,99524.39
2023-02-18T12:17:47.679Z,99523.38
2023-02-18T12:20:48.098Z,99534.48
2023-02-18T12:27:51.995Z,99510.20
2023-02-18T12:35:26.813Z,99512.99
2023-02-18T12:38:26.738Z,99506.89
2023-02-18T12:41:30.114Z,99501.75
2023-02-18T12:44:10.280Z,99501.34
2023-02-18T12:46:52.302Z,99490.40
2023-02-18T12:49:37.694Z,99489.80
2023-02-18T12:52:27.394Z,99493.71
2023-02-18T12:55:26.864Z,99488.21
2023-02-18T12:58:28.496Z,99479.77
2023-02-18T13:01:10.906Z,99474.24
2023-02-18T13:03:58.263Z,99472.39
2023-02-18T13:06:32.817Z,99467.96
2023-02-18T13:09:18.810Z,99481.15
2023-02-18T13:11:59.256Z,99479.59
2023-02-18T13:14:34.479Z,99475.23
2023-02-18T13:17:05.649Z,99472.80
2023-02-18T13:19:43.660Z,99464.63
2023-02-18T13:22:14.760Z,99467.61
2023-02-18T13:24:48.692Z,99466.07
2023-02-18T13:27:45.722Z,99466.17
2023-02-18T13:30:38.555Z,99456.02
2023-02-18T13:33:10.342Z,99462.05
2023-02-18T13:35:44.600Z,99454.36
2023-02-18T13:38:35.039Z,99458.21
2023-02-18T13:41:04.152Z,99462.23
2023-02-18T13:43:35.128Z,99466.92
2023-02-18T13:46:28.779Z,99465.50
2023-02-18T13:49:13.765Z,99462.42
2023-02-18T13:51:52.808Z,99462.76
2023-02-18T13:54:28.735Z,99460.69
2023-02-18T13:57:15.808Z,99453.66
2023-02-18T13:59:53.771Z,99464.27
2023-02-18T14:02:35.852Z,99461.36
2023-02-18T14:05:24.756Z,99459.55
2023-02-18T14:08:17.753Z,99456.38
2023-02-18T14:11:29.731Z,99452.52
2023-02-18T14:14:33.816Z,99451.20
2023-02-18T14:17:39.115Z,99440.13
2023-02-18T14:20:33.784Z,99432.52
2023-02-18T14:23:41.788Z,99431.80
2023-02-18T14:26:24.821Z,99426.49
2023-02-18T14:29:22.831Z,99423.72
2023-02-18T14:32:05.003Z,99424.16
2023-02-18T14:34:56.791Z,99428.16
2023-02-18T14:37:42.784Z,99420.13
2023-02-18T14:40:39.845Z,99413.67
2023-02-18T14:43:47.801Z,99405.45
2023-02-18T14:53:48.982Z,99393.88
2023-02-18T14:56:20.489Z,99411.02
2023-02-18T14:58:52.460Z,99402.66
2023-02-18T15:01:32.258Z,99397.12
2023-02-18T15:04:02.210Z,99400.05
2023-02-18T15:06:33.361Z,99399.81
2023-02-18T15:09:12.370Z,99402.09
2023-02-18T15:11:45.214Z,99425.96
2023-02-18T15:21:51.854Z,99427.88
2023-02-18T15:24:30.367Z,99418.77
2023-02-18T15:27:05.664Z,99411.65
2023-02-18T15:29:36.403Z,99398.92
2023-02-18T15:32:16.074Z,99404.50
2023-02-18T15:34:45.773Z,99405.49
2023-02-18T15:37:15.182Z,99399.75
2023-02-18T15:39:43.962Z,99398.55
2023-02-18T15:42:30.152Z,99395.39
2023-02-18T15:45:13.527Z,99389.34
2023-02-18T15:47:46.717Z,99393.23
2023-02-18T15:50:27.514Z,99398.36
2023-02-18T15:53:00.286Z,99395.37
2023-02-18T15:55:49.492Z,99396.96
2023-02-18T15:58:22.411Z,99396.83
2023-02-18T16:00:53.929Z,99405.58
2023-02-18T16:03:23.612Z,99404.18
2023-02-18T16:06:07.363Z,99401.34
2023-02-18T16:08:35.492Z,99403.19
2023-02-18T16:11:07.322Z,99393.07
2023-02-18T16:13:38.471Z,99389.63
2023-02-18T16:16:07.421Z,99397.52
2023-02-18T16:18:35.720Z,99392.95
2023-02-18T16:21:09.740Z,99394.84
2023-02-18T16:24:01.505Z,99398.20
2023-02-18T16:26:41.525Z,99401.62
2023-02-18T16:29:16.077Z,99402.23
2023-02-18T16:31:43.971Z,99400.23
2023-02-18T16:34:11.838Z,99401.35
2023-02-18T16:37:00.010Z,99399.41
2023-02-18T16:39:32.585Z,99404.83
2023-02-18T16:42:00.554Z,99408.31
2023-02-18T16:44:28.590Z,99409.83
2023-02-18T16:46:57.451Z,99411.52
2023-02-18T16:49:25.386Z,99411.81
2023-02-18T16:51:53.399Z,99414.04
2023-02-18T16:54:21.232Z,99417.59
2023-02-18T16:56:49.285Z,99415.83
2023-02-18T16:59:17.429Z,99413.92
2023-02-18T17:01:46.387Z,99413.36
2023-02-18T17:04:16.541Z,99413.71
2023-02-18T17:06:48.770Z,99410.83
2023-02-18T17:09:22.336Z,99407.55
2023-02-18T17:11:52.272Z,99403.31
2023-02-18T17:14:21.965Z,99401.31
2023-02-18T17:16:52.919Z,99399.28
2023-02-18T17:19:21.644Z,99398.64
2023-02-18T17:21:49.873Z,99396.59
2023-02-18T17:24:19.159Z,99399.86
2023-02-18T17:26:47.053Z,99400.56
2023-02-18T17:29:16.078Z,99397.33
2023-02-18T17:31:47.525Z,99398.27
2023-02-18T17:34:22.698Z,99395.09
2023-02-18T17:36:50.727Z,99400.82
2023-02-18T17:39:18.800Z,99406.42
2023-02-18T17:41:46.896Z,99405.66
2023-02-18T17:44:23.762Z,99405.55
2023-02-18T17:46:52.650Z,99403.35
2023-02-18T17:49:22.576Z,99403.80
2023-02-18T17:51:52.247Z,99416.36
2023-02-18T17:54:22.937Z,99416.84
2023-02-18T17:56:51.192Z,99415.34
2023-02-18T17:59:19.191Z,99405.65
2023-02-18T18:01:47.230Z,99399.88
2023-02-18T18:04:17.907Z,99394.77
2023-02-18T18:06:46.847Z,99396.86
2023-02-18T18:09:14.660Z,99400.34
2023-02-18T18:11:42.922Z,99401.38
2023-02-18T18:14:14.528Z,99398.44
2023-02-18T18:16:42.412Z,99396.40
2023-02-18T18:19:10.928Z,99389.83
2023-02-18T18:21:38.954Z,99388.44
2023-02-18T18:24:07.240Z,99390.19
2023-02-18T18:26:35.169Z,99396.66
2023-02-18T18:29:03.108Z,99397.34
2023-02-18T18:31:32.493Z,99398.20
2023-02-18T18:34:01.717Z,99397.94
2023-02-18T18:36:29.679Z,99391.73
2023-02-18T18:38:57.757Z,99387.36
2023-02-18T18:41:25.679Z,99384.71
2023-02-18T18:43:53.609Z,99384.34
2023-02-18T18:46:21.844Z,99389.38
2023-02-18T18:48:50.204Z,99392.52
2023-02-18T18:51:25.178Z,99396.52
2023-02-18T18:53:53.351Z,99397.23
2023-02-18T18:56:22.098Z,99393.05
2023-02-18T18:58:50.129Z,99392.04
2023-02-18T19:01:22.866Z,99390.92
2023-02-18T19:03:50.857Z,99386.02
2023-02-18T19:06:18.826Z,99383.03
2023-02-18T19:08:48.081Z,99386.98
2023-02-18T19:11:17.032Z,99390.56
2023-02-18T19:13:46.002Z,99400.52
2023-02-18T19:16:42.953Z,99401.41
2023-02-18T19:19:11.741Z,99405.73
2023-02-18T19:21:42.082Z,99414.72
2023-02-18T19:24:10.032Z,99419.73
2023-02-18T19:26:38.301Z,99426.24
2023-02-18T19:29:06.376Z,99427.14
2023-02-18T19:31:34.327Z,99434.50
2023-02-18T19:34:04.094Z,99436.73
2023-02-18T19:36:33.051Z,99448.02
2023-02-18T19:39:01.005Z,99452.46
2023-02-18T19:41:29.232Z,99449.17
2023-02-18T19:43:57.159Z,99441.11
2023-02-18T19:46:25.169Z,99444.52
2023-02-18T19:48:53.949Z,99443.66
2023-02-18T19:51:21.904Z,99439.77
2023-02-18T19:53:49.957Z,99447.50
2023-02-18T19:56:18.078Z,99450.96
2023-02-18T19:58:45.890Z,99456.94
2023-02-18T20:01:16.063Z,99462.77
2023-02-18T20:03:44.859Z,99469.45
2023-02-18T20:06:20.575Z,99468.06
2023-02-18T20:08:48.560Z,99466.88
2023-02-18T20:11:17.188Z,99469.93
2023-02-18T20:13:47.685Z,99468.06
2023-02-18T20:16:16.201Z,99474.54
2023-02-18T20:18:44.508Z,99472.38
2023-02-18T20:21:13.036Z,99478.63
2023-02-18T20:23:41.707Z,99479.21
2023-02-18T20:26:11.439Z,99485.61
2023-02-18T20:28:39.468Z,99486.33
2023-02-18T20:31:11.557Z,99490.77
2023-02-18T20:33:42.282Z,99496.95
2023-02-18T20:36:12.873Z,99503.29
2023-02-18T20:38:40.790Z,99505.91
2023-02-18T20:41:11.952Z,99511.27
2023-02-18T20:43:41.071Z,99526.33
2023-02-18T20:46:12.896Z,99529.09
2023-02-18T20:48:41.311Z,99533.36
2023-02-18T20:51:13.013Z,99536.27
2023-02-18T20:53:42.578Z,99545.81
2023-02-18T20:56:10.990Z,99547.91
2023-02-18T20:58:39.332Z,99548.21
2023-02-18T21:01:10.598Z,99555.73
2023-02-18T21:03:39.973Z,99554.84
2023-02-18T21:06:15.368Z,99554.27
2023-02-18T21:08:45.445Z,99553.22
2023-02-18T21:11:22.139Z,99556.88
2023-02-18T21:13:50.842Z,99562.22
2023-02-18T21:16:20.651Z,99565.27
2023-02-18T21:18:48.902Z,99565.27
2023-02-18T21:21:17.468Z,99579.13
2023-02-18T21:23:45.363Z,99580.00
2023-02-18T21:26:18.851Z,99576.77
2023-02-18T21:28:48.512Z,99581.25
2023-02-18T21:31:23.322Z,99579.03
2023-02-18T21:33:52.053Z,99575.60
2023-02-18T21:36:20.718Z,99590.15
2023-02-18T21:38:57.305Z,99588.96
2023-02-18T21:41:26.936Z,99596.83
2023-02-18T21:43:55.303Z,99598.86
2023-02-18T21:46:25.762Z,99604.48
2023-02-18T21:49:05.953Z,99608.55
2023-02-18T21:51:56.861Z,99616.27
2023-02-18T21:54:28.871Z,99625.73
2023-02-18T21:56:58.574Z,99635.98
2023-02-18T21:59:28.856Z,99634.30
2023-02-18T22:02:01.213Z,99638.43
2023-02-18T22:04:31.109Z,99642.20
2023-02-18T22:06:59.565Z,99642.39
2023-02-18T22:09:27.827Z,99647.07
2023-02-18T22:11:56.055Z,99658.84
2023-02-18T22:14:23.999Z,99665.64
2023-02-18T22:16:52.262Z,99668.27
2023-02-18T22:19:20.316Z,99674.65
2023-02-18T22:21:49.021Z,99678.51
2023-02-18T22:24:18.494Z,99670.64
2023-02-18T22:26:47.142Z,99671.86
2023-02-18T22:29:16.910Z,99681.33
2023-02-18T22:31:45.323Z,99679.84
2023-02-18T22:34:13.522Z,99680.77
2023-02-18T22:36:41.831Z,99680.34
2023-02-18T22:39:10.887Z,99687.29
2023-02-18T22:41:39.353Z,99685.00
2023-02-18T22:44:11.365Z,99692.11
2023-02-18T22:46:40.452Z,99700.41
2023-02-18T22:49:08.730Z,99703.37
2023-02-18T22:51:39.452Z,99705.83
2023-02-18T22:54:12.656Z,99706.06
2023-02-18T22:56:40.792Z,99706.98
2023-02-18T22:59:09.948Z,99712.66
2023-02-18T23:01:40.840Z,99723.65
2023-02-18T23:04:14.919Z,99721.48
2023-02-18T23:06:45.124Z,99723.91
2023-02-18T23:09:16.917Z,99722.75
2023-02-18T23:11:45.237Z,99719.73
2023-02-18T23:14:19.392Z,99727.11
2023-02-18T23:17:15.226Z,99730.73
2023-02-18T23:19:54.104Z,99729.05
2023-02-18T23:22:30.468Z,99732.66
2023-02-18T23:24:59.427Z,99733.55
2023-02-18T23:27:28.470Z,99741.94
2023-02-18T23:29:56.629Z,99740.74
2023-02-18T23:32:26.046Z,99748.45
2023-02-18T23:34:53.838Z,99752.89
2023-02-18T23:37:43.718Z,99750.67
2023-02-18T23:40:14.084Z,99749.83
2023-02-18T23:42:42.057Z,99755.31
2023-02-18T23:45:09.930Z,99763.70
2023-02-18T23:47:37.904Z,99767.96
2023-02-18T23:50:06.352Z,99773.09
2023-02-18T23:52:34.169Z,99770.02
2023-02-18T23:55:02.245Z,99766.61
2023-02-18T23:57:31.903Z,99767.16
2023-02-18T23:59:59.991Z,99758.83
